Time;durP1;ratioP1;P1;durP2;ratioP2;P2;SDS_P1;SDS_P2;PMS_P1;PMS_P2;Temp;Humidity;BMP_temperature;BMP_pressure;BME280_temperature;BME280_humidity;BME280_pressure;Samples;Min_cycle;Max_cycle;Signal;HPM_P1;HPM_P2
2021/07/09 00:01:14;;;;;;;5.30;3.83;;;18.80;99.90;;;;;;5072123;28;20699;-73
2021/07/09 00:03:41;;;;;;;5.97;4.20;;;18.80;99.90;;;;;;5072530;28;20181;-73
2021/07/09 00:06:07;;;;;;;4.20;3.80;;;18.80;99.90;;;;;;5073027;28;20673;-73
2021/07/09 00:08:32;;;;;;;4.83;4.23;;;18.80;99.90;;;;;;5072701;28;20177;-73
2021/07/09 00:10:59;;;;;;;5.20;4.70;;;18.80;99.90;;;;;;5072249;28;20172;-73
2021/07/09 00:13:24;;;;;;;5.10;4.00;;;18.70;99.90;;;;;;5071196;28;20220;-74
2021/07/09 00:15:50;;;;;;;5.13;4.07;;;18.70;99.90;;;;;;5072498;28;20197;-73
2021/07/09 00:18:15;;;;;;;8.10;4.80;;;18.70;99.90;;;;;;5072692;28;20256;-74
2021/07/09 00:20:41;;;;;;;5.03;4.63;;;18.70;99.90;;;;;;5071956;28;20180;-73
2021/07/09 00:23:07;;;;;;;6.53;4.60;;;18.60;99.90;;;;;;5072536;28;20268;-73
2021/07/09 00:25:32;;;;;;;5.13;4.50;;;18.60;99.90;;;;;;5072313;28;20192;-73
2021/07/09 00:27:58;;;;;;;7.60;5.30;;;18.60;99.90;;;;;;5054059;28;20166;-73
2021/07/09 00:30:23;;;;;;;5.43;4.93;;;18.50;99.90;;;;;;5070052;28;20258;-73
2021/07/09 00:32:49;;;;;;;5.80;5.20;;;18.50;99.90;;;;;;5072459;28;20548;-73
2021/07/09 00:35:15;;;;;;;5.97;4.90;;;18.50;99.90;;;;;;5072196;28;20727;-73
2021/07/09 00:37:40;;;;;;;7.43;4.80;;;18.50;99.90;;;;;;5087662;28;20196;-73
2021/07/09 00:40:07;;;;;;;5.80;5.07;;;18.50;99.90;;;;;;5098078;28;20178;-73
2021/07/09 00:42:33;;;;;;;7.93;6.20;;;18.40;99.90;;;;;;5097602;28;20194;-73
2021/07/09 00:45:04;;;;;;;6.83;5.77;;;18.40;99.90;;;;;;5098092;28;20185;-73
2021/07/09 00:47:29;;;;;;;7.10;6.40;;;18.40;99.90;;;;;;5097928;28;20193;-73
2021/07/09 00:49:54;;;;;;;7.20;6.50;;;18.30;99.90;;;;;;5096292;28;20181;-74
2021/07/09 00:52:20;;;;;;;9.13;7.03;;;18.30;99.90;;;;;;5093535;28;20185;-75
2021/07/09 00:54:45;;;;;;;7.63;6.43;;;18.30;99.90;;;;;;5082495;28;20221;-75
2021/07/09 00:57:13;;;;;;;7.80;6.50;;;18.40;99.90;;;;;;5054772;28;20177;-74
2021/07/09 00:59:39;;;;;;;6.87;6.27;;;18.30;99.90;;;;;;5070539;28;20185;-75
2021/07/09 01:02:04;;;;;;;9.97;6.60;;;18.30;99.90;;;;;;5071282;28;20179;-74
2021/07/09 01:04:30;;;;;;;8.80;6.87;;;18.30;99.90;;;;;;5071749;28;20204;-74
2021/07/09 01:06:56;;;;;;;8.53;6.67;;;18.30;99.90;;;;;;5072046;28;20205;-74
2021/07/09 01:09:21;;;;;;;10.10;8.23;;;18.30;99.90;;;;;;5071601;28;20185;-74
2021/07/09 01:11:50;;;;;;;9.13;7.47;;;18.30;99.90;;;;;;5070994;28;20222;-73
2021/07/09 01:14:20;;;;;;;10.37;8.07;;;18.20;99.90;;;;;;5070095;28;20205;-73
2021/07/09 01:16:47;;;;;;;8.83;7.70;;;18.20;99.90;;;;;;5053742;28;20169;-73
2021/07/09 01:19:15;;;;;;;9.03;7.90;;;18.10;99.90;;;;;;5071032;28;20601;-73
2021/07/09 01:21:44;;;;;;;10.00;7.60;;;18.20;99.90;;;;;;5070884;28;20711;-73
2021/07/09 01:24:11;;;;;;;8.93;8.03;;;18.10;99.90;;;;;;5071150;28;20664;-72
2021/07/09 01:26:37;;;;;;;9.40;8.50;;;18.10;99.90;;;;;;5070027;28;20660;-72
2021/07/09 01:29:04;;;;;;;8.87;7.93;;;18.10;99.90;;;;;;5071063;28;20211;-72
2021/07/09 01:31:30;;;;;;;10.17;8.10;;;18.10;99.90;;;;;;5069017;28;20246;-72
2021/07/09 01:33:56;;;;;;;9.80;8.73;;;18.10;99.90;;;;;;5070836;28;20292;-73
2021/07/09 01:36:21;;;;;;;9.03;8.13;;;18.00;99.90;;;;;;5053351;28;20283;-73
2021/07/09 01:52:19;;;;;;;10.50;7.23;;;18.20;99.90;;;;;;5070172;28;20164;-73
2021/07/09 01:54:45;;;;;;;10.73;8.13;;;18.20;99.90;;;;;;5085592;22;20688;-71
2021/07/09 01:57:12;;;;;;;8.00;7.20;;;18.20;99.90;;;;;;5069250;28;20185;-70
2021/07/09 01:59:41;;;;;;;8.03;7.23;;;18.20;99.90;;;;;;5066110;28;20204;-71
2021/07/09 02:02:07;;;;;;;7.70;6.23;;;18.20;99.90;;;;;;5067219;28;20185;-71
2021/07/09 02:04:33;;;;;;;7.70;6.87;;;18.30;99.90;;;;;;5070082;28;20181;-71
2021/07/09 02:06:58;;;;;;;9.77;7.40;;;18.30;99.90;;;;;;5068380;28;20260;-71
2021/07/09 02:09:24;;;;;;;9.30;7.43;;;18.30;99.90;;;;;;5072816;28;20182;-72
2021/07/09 02:11:49;;;;;;;11.80;7.07;;;18.30;99.90;;;;;;5071490;28;20193;-72
2021/07/09 02:14:15;;;;;;;11.90;8.03;;;18.30;99.90;;;;;;5073712;28;20197;-72
2021/07/09 02:16:40;;;;;;;11.53;8.17;;;18.30;99.90;;;;;;5075738;28;20235;-71
2021/07/09 02:19:07;;;;;;;9.37;7.77;;;18.30;99.90;;;;;;5071698;28;20169;-71
2021/07/09 02:21:33;;;;;;;10.50;8.13;;;18.30;99.90;;;;;;5074308;28;20158;-72
2021/07/09 02:23:59;;;;;;;8.77;7.80;;;18.20;99.90;;;;;;5076221;28;20170;-72
2021/07/09 02:26:25;;;;;;;9.60;7.80;;;18.20;99.90;;;;;;5074757;28;20190;-72
2021/07/09 02:28:51;;;;;;;8.70;7.53;;;18.20;99.90;;;;;;5073870;28;20185;-71
2021/07/09 02:31:16;;;;;;;10.90;7.83;;;18.20;99.90;;;;;;5072926;28;20173;-71
2021/07/09 02:33:42;;;;;;;8.37;7.57;;;18.20;99.90;;;;;;5073512;28;20228;-73
2021/07/09 02:36:07;;;;;;;11.27;7.73;;;18.20;99.90;;;;;;5073129;28;20233;-73
2021/07/09 02:38:33;;;;;;;9.67;7.33;;;18.10;99.90;;;;;;5072844;28;20200;-72
2021/07/09 02:40:59;;;;;;;9.30;7.43;;;18.20;99.90;;;;;;5072930;28;20162;-73
2021/07/09 02:43:24;;;;;;;12.23;8.03;;;18.20;99.90;;;;;;5073368;28;20158;-72
2021/07/09 02:45:50;;;;;;;9.20;6.00;;;18.20;99.90;;;;;;5073286;28;20184;-72
2021/07/09 02:48:18;;;;;;;9.23;7.33;;;18.20;99.90;;;;;;5073125;28;20166;-73
2021/07/09 02:50:45;;;;;;;9.53;7.97;;;18.30;99.90;;;;;;5072800;28;20208;-73
2021/07/09 02:53:10;;;;;;;9.50;7.87;;;18.30;99.90;;;;;;5072593;28;20192;-73
2021/07/09 02:55:36;;;;;;;10.67;7.30;;;18.30;99.90;;;;;;5071807;28;20213;-73
2021/07/09 02:58:02;;;;;;;8.73;7.87;;;18.40;99.90;;;;;;5072766;28;20159;-73
2021/07/09 03:00:28;;;;;;;8.83;7.93;;;18.40;99.90;;;;;;5072977;28;20204;-74
2021/07/09 03:02:53;;;;;;;10.20;8.00;;;18.40;99.90;;;;;;5073954;28;20235;-72
2021/07/09 03:05:19;;;;;;;10.60;8.07;;;18.40;99.90;;;;;;5073985;28;20197;-74
2021/07/09 03:07:45;;;;;;;8.43;6.80;;;18.40;99.90;;;;;;5074512;28;20261;-73
2021/07/09 03:10:11;;;;;;;10.07;7.53;;;18.40;99.90;;;;;;5072750;28;20177;-73
2021/07/09 03:12:38;;;;;;;11.40;7.40;;;18.50;99.90;;;;;;5073093;28;20190;-73
2021/07/09 03:15:06;;;;;;;8.60;7.10;;;18.50;99.90;;;;;;5073376;28;20215;-73
2021/07/09 03:17:32;;;;;;;7.83;6.77;;;18.50;99.90;;;;;;5074110;28;20201;-74
2021/07/09 03:19:58;;;;;;;8.83;7.30;;;18.50;99.90;;;;;;5073743;28;20178;-73
2021/07/09 03:22:23;;;;;;;8.33;7.43;;;18.50;99.90;;;;;;5073994;28;20249;-73
2021/07/09 03:24:49;;;;;;;9.50;6.90;;;18.50;99.90;;;;;;5077179;28;20169;-73
2021/07/09 03:27:14;;;;;;;11.77;8.03;;;18.50;99.90;;;;;;5075899;28;20182;-73
2021/07/09 03:29:40;;;;;;;11.17;7.57;;;18.50;99.90;;;;;;5076680;28;20174;-74
2021/07/09 03:32:06;;;;;;;8.93;7.13;;;18.60;99.90;;;;;;5075261;28;20173;-74
2021/07/09 03:34:31;;;;;;;7.40;6.63;;;18.60;99.90;;;;;;5074255;28;20205;-73
2021/07/09 03:36:57;;;;;;;9.07;7.10;;;18.70;99.90;;;;;;5074063;28;20205;-74
2021/07/09 03:39:22;;;;;;;9.33;7.53;;;18.70;99.90;;;;;;5074876;28;20287;-74
2021/07/09 03:41:48;;;;;;;11.00;7.47;;;18.70;99.90;;;;;;5074299;28;20375;-72
2021/07/09 03:44:13;;;;;;;12.80;7.53;;;18.80;99.90;;;;;;5072853;28;20178;-72
2021/07/09 03:46:39;;;;;;;10.87;8.00;;;18.80;99.90;;;;;;5074694;28;20594;-72
2021/07/09 03:49:08;;;;;;;9.13;7.47;;;18.90;99.90;;;;;;5056733;28;20646;-71
2021/07/09 03:51:37;;;;;;;10.37;6.87;;;19.00;99.90;;;;;;5070233;28;20186;-74
2021/07/09 03:54:03;;;;;;;10.13;7.97;;;19.00;99.90;;;;;;5056361;28;20208;-74
2021/07/09 03:56:29;;;;;;;11.40;8.33;;;19.10;99.90;;;;;;5071253;28;20214;-72
2021/07/09 03:58:56;;;;;;;10.23;7.70;;;19.20;99.90;;;;;;5075917;28;20201;-72
2021/07/09 04:01:21;;;;;;;8.50;7.00;;;19.70;99.90;;;;;;5075590;28;20353;-72
2021/07/09 04:03:47;;;;;;;8.70;7.03;;;19.80;99.90;;;;;;5075703;28;20182;-73
2021/07/09 04:06:12;;;;;;;10.60;6.90;;;19.60;99.90;;;;;;5074217;28;20205;-73
2021/07/09 04:08:38;;;;;;;12.67;6.80;;;19.40;99.90;;;;;;5073781;28;20181;-72
2021/07/09 04:11:04;;;;;;;7.00;6.33;;;19.20;99.90;;;;;;5072960;28;20178;-72
2021/07/09 04:13:30;;;;;;;7.43;6.23;;;19.20;99.90;;;;;;5072636;28;20197;-72
2021/07/09 04:15:55;;;;;;;7.83;6.40;;;19.20;99.90;;;;;;5074198;28;20544;-72
2021/07/09 04:18:21;;;;;;;8.70;6.47;;;19.20;99.90;;;;;;5075591;28;20216;-73
2021/07/09 04:20:47;;;;;;;8.90;6.17;;;19.20;99.90;;;;;;5074603;28;20199;-72
2021/07/09 04:23:12;;;;;;;8.97;5.40;;;19.30;99.90;;;;;;5055201;28;20187;-72
2021/07/09 04:25:39;;;;;;;6.17;5.43;;;19.30;99.90;;;;;;5076051;28;20269;-73
2021/07/09 04:28:05;;;;;;;10.77;5.77;;;19.50;99.90;;;;;;5077017;28;20177;-73
2021/07/09 04:30:32;;;;;;;6.20;5.10;;;19.60;99.90;;;;;;5076657;28;20229;-73
2021/07/09 04:32:58;;;;;;;6.07;4.37;;;19.60;99.90;;;;;;5058700;28;20185;-73
2021/07/09 04:35:23;;;;;;;5.97;4.30;;;19.70;99.90;;;;;;5074583;28;20268;-73
2021/07/09 04:37:49;;;;;;;6.77;4.53;;;19.70;99.90;;;;;;5070623;28;20185;-72
2021/07/09 04:40:15;;;;;;;5.57;3.97;;;19.70;99.90;;;;;;5054052;28;20166;-71
2021/07/09 04:42:41;;;;;;;7.70;4.03;;;19.90;99.90;;;;;;5053940;28;20171;-72
2021/07/09 04:45:07;;;;;;;5.87;4.10;;;19.80;99.90;;;;;;5053607;28;20194;-72
2021/07/09 04:47:33;;;;;;;4.07;3.53;;;19.90;99.90;;;;;;5054143;28;20429;-72
2021/07/09 04:49:59;;;;;;;4.33;3.80;;;19.90;99.90;;;;;;5072087;28;20182;-71
2021/07/09 04:52:25;;;;;;;6.17;3.80;;;19.90;99.90;;;;;;5073235;28;20185;-72
2021/07/09 04:54:50;;;;;;;4.77;3.50;;;20.00;99.90;;;;;;5074022;28;20219;-71
2021/07/09 04:57:16;;;;;;;8.07;3.73;;;20.10;99.90;;;;;;5071959;28;20227;-70
2021/07/09 04:59:41;;;;;;;5.63;4.00;;;20.00;99.90;;;;;;5069948;28;20177;-71
2021/07/09 05:02:07;;;;;;;6.50;4.00;;;20.00;99.90;;;;;;5068309;28;20178;-71
2021/07/09 05:04:32;;;;;;;6.67;4.90;;;20.00;99.90;;;;;;5070766;28;20182;-70
2021/07/09 05:06:58;;;;;;;6.00;4.03;;;20.10;99.90;;;;;;5072002;28;20189;-71
2021/07/09 05:09:23;;;;;;;6.10;4.50;;;20.00;99.90;;;;;;5072110;28;20234;-71
2021/07/09 05:11:49;;;;;;;7.90;4.23;;;20.00;99.90;;;;;;5071644;28;20196;-71
2021/07/09 05:14:15;;;;;;;9.10;5.00;;;20.10;99.90;;;;;;5072481;28;20236;-71
2021/07/09 05:16:40;;;;;;;6.27;4.47;;;20.10;99.90;;;;;;5067407;28;20189;-71
2021/07/09 05:19:06;;;;;;;8.13;4.57;;;20.10;99.90;;;;;;5067893;28;20169;-71
2021/07/09 05:21:33;;;;;;;7.03;4.60;;;20.50;99.90;;;;;;5065284;28;20178;-73
2021/07/09 05:24:07;;;;;;;7.43;4.50;;;20.60;99.90;;;;;;5066987;28;20172;-71
2021/07/09 05:26:33;;;;;;;9.13;4.83;;;20.60;99.90;;;;;;5049637;28;20370;-71
2021/07/09 05:28:59;;;;;;;6.77;4.63;;;20.70;99.90;;;;;;5068265;28;20176;-72
2021/07/09 05:31:25;;;;;;;6.03;4.90;;;20.70;99.90;;;;;;5067514;28;20213;-72
2021/07/09 05:33:51;;;;;;;8.40;5.30;;;20.70;99.90;;;;;;5069763;28;20223;-72
2021/07/09 05:36:16;;;;;;;5.57;4.37;;;20.80;99.90;;;;;;5071172;28;20240;-71
2021/07/09 05:38:42;;;;;;;6.70;4.50;;;20.70;99.90;;;;;;5071605;28;20234;-72
2021/07/09 05:41:07;;;;;;;6.70;5.03;;;20.60;99.90;;;;;;5073723;28;20183;-72
2021/07/09 05:43:33;;;;;;;8.10;4.90;;;20.50;99.90;;;;;;5071444;28;20174;-72
2021/07/09 05:46:00;;;;;;;6.80;4.40;;;20.50;99.90;;;;;;5071007;28;20196;-71
2021/07/09 05:48:25;;;;;;;6.27;4.57;;;20.40;99.90;;;;;;5072308;28;20537;-71
2021/07/09 05:50:51;;;;;;;7.60;5.50;;;20.30;99.90;;;;;;5069596;28;20178;-72
2021/07/09 05:53:16;;;;;;;9.00;5.17;;;20.40;99.90;;;;;;5067941;28;20182;-72
2021/07/09 05:55:43;;;;;;;6.27;4.80;;;20.30;99.90;;;;;;5070518;28;20205;-72
2021/07/09 05:58:09;;;;;;;6.47;5.23;;;20.30;99.90;;;;;;5071466;28;20238;-72
2021/07/09 06:00:35;;;;;;;8.73;5.00;;;20.20;99.90;;;;;;5067000;28;20189;-73
2021/07/09 06:03:01;;;;;;;5.70;4.97;;;20.20;99.90;;;;;;5052591;28;20694;-73
2021/07/09 06:05:27;;;;;;;7.37;5.27;;;20.20;99.90;;;;;;5071953;28;20237;-73
2021/07/09 06:07:52;;;;;;;7.07;5.63;;;20.20;99.90;;;;;;5074264;28;20180;-72
2021/07/09 06:10:19;;;;;;;12.90;6.30;;;20.20;99.90;;;;;;5070697;28;20163;-72
2021/07/09 06:12:45;;;;;;;7.17;6.10;;;20.20;99.90;;;;;;5071849;28;20657;-72
2021/07/09 06:15:11;;;;;;;8.60;6.03;;;20.30;99.90;;;;;;5071891;28;20213;-72
2021/07/09 06:17:37;;;;;;;8.90;6.83;;;20.30;99.90;;;;;;5060971;28;20225;-74
2021/07/09 06:20:05;;;;;;;10.07;7.20;;;20.20;99.90;;;;;;5071730;28;20202;-72
2021/07/09 06:22:31;;;;;;;10.50;7.17;;;20.20;99.90;;;;;;5073163;28;20200;-70
2021/07/09 06:24:56;;;;;;;7.07;6.37;;;20.20;99.90;;;;;;5072205;28;20182;-68
2021/07/09 06:27:22;;;;;;;6.70;6.10;;;20.10;99.90;;;;;;5069486;28;20193;-67
2021/07/09 06:29:47;;;;;;;7.13;6.53;;;20.20;99.90;;;;;;5070610;28;20188;-67
2021/07/09 06:32:13;;;;;;;9.47;7.37;;;20.40;99.90;;;;;;5068491;28;20201;-69
2021/07/09 06:34:38;;;;;;;8.70;6.70;;;20.50;99.90;;;;;;5073930;28;20194;-69
2021/07/09 06:37:04;;;;;;;10.83;6.00;;;20.50;99.90;;;;;;5073996;28;20170;-69
2021/07/09 06:39:29;;;;;;;11.50;6.53;;;20.50;99.90;;;;;;5072632;28;20166;-69
2021/07/09 06:41:55;;;;;;;10.77;6.27;;;20.60;99.90;;;;;;5072953;28;20184;-70
2021/07/09 06:44:20;;;;;;;7.00;5.50;;;20.50;99.90;;;;;;5070889;28;20248;-69
2021/07/09 06:46:46;;;;;;;10.23;5.10;;;20.60;99.90;;;;;;5072929;28;20192;-70
2021/07/09 06:49:12;;;;;;;7.03;4.93;;;20.60;99.90;;;;;;5073712;28;20207;-69
2021/07/09 06:51:37;;;;;;;6.23;5.00;;;20.60;99.90;;;;;;5072191;28;20190;-70
2021/07/09 06:54:03;;;;;;;7.07;4.33;;;20.60;99.90;;;;;;5074028;28;20215;-69
2021/07/09 06:56:29;;;;;;;6.37;4.60;;;20.50;99.90;;;;;;5070555;28;20209;-68
2021/07/09 06:58:54;;;;;;;5.67;4.30;;;20.60;99.90;;;;;;5052410;28;20197;-69
2021/07/09 07:01:20;;;;;;;7.70;4.90;;;20.80;99.90;;;;;;5056690;28;20638;-72
2021/07/09 07:03:45;;;;;;;6.87;4.47;;;20.70;99.90;;;;;;5045149;28;20255;-70
2021/07/09 07:06:12;;;;;;;5.07;3.40;;;20.70;99.90;;;;;;5054775;28;20264;-69
2021/07/09 07:08:38;;;;;;;4.63;3.90;;;20.80;99.90;;;;;;5037088;28;20212;-69
2021/07/09 07:11:04;;;;;;;4.30;3.30;;;20.90;99.90;;;;;;5054228;28;20185;-69
2021/07/09 07:13:29;;;;;;;6.07;3.30;;;21.00;99.90;;;;;;5055734;28;20283;-70
2021/07/09 07:15:55;;;;;;;6.00;3.23;;;21.20;99.90;;;;;;5056545;28;20187;-69
2021/07/09 07:18:20;;;;;;;3.77;3.00;;;21.10;99.90;;;;;;5056698;28;20175;-69
2021/07/09 07:20:47;;;;;;;6.30;3.20;;;21.30;99.90;;;;;;5056989;28;20215;-68
2021/07/09 07:23:15;;;;;;;4.13;2.80;;;21.30;99.90;;;;;;5057438;28;20208;-68
2021/07/09 07:25:41;;;;;;;7.33;3.00;;;21.40;99.90;;;;;;5058942;28;20198;-69
2021/07/09 07:28:08;;;;;;;4.97;2.93;;;21.50;99.90;;;;;;5055846;28;20215;-70
2021/07/09 07:30:34;;;;;;;5.67;2.77;;;21.50;99.90;;;;;;5038192;28;20177;-69
2021/07/09 07:33:01;;;;;;;3.00;2.70;;;21.60;99.90;;;;;;5055066;28;20172;-68
2021/07/09 07:35:28;;;;;;;6.00;3.00;;;21.50;99.90;;;;;;5036930;28;20305;-69
2021/07/09 07:37:53;;;;;;;4.63;2.47;;;21.60;99.90;;;;;;5055080;28;20646;-69
2021/07/09 07:40:19;;;;;;;2.33;1.80;;;21.70;99.90;;;;;;5055227;28;20182;-69
2021/07/09 07:42:45;;;;;;;3.67;2.17;;;21.60;99.90;;;;;;5055318;28;20169;-69
2021/07/09 07:45:11;;;;;;;2.77;2.43;;;21.60;99.90;;;;;;5055322;28;20192;-69
2021/07/09 07:47:37;;;;;;;5.97;2.30;;;21.70;99.90;;;;;;5037323;28;20225;-69
2021/07/09 07:50:04;;;;;;;3.47;2.20;;;21.70;99.90;;;;;;5054994;28;20178;-68
2021/07/09 07:52:29;;;;;;;2.30;2.10;;;21.90;99.90;;;;;;5055842;28;20457;-69
2021/07/09 07:54:55;;;;;;;2.20;2.00;;;21.70;99.90;;;;;;5061903;23;20217;-76
2021/07/09 07:57:21;;;;;;;5.63;2.27;;;21.80;99.90;;;;;;5107066;28;20187;-77
2021/07/09 07:59:46;;;;;;;3.70;2.37;;;21.90;99.90;;;;;;5094459;28;20177;-77
2021/07/09 08:02:12;;;;;;;4.13;2.58;;;21.80;99.90;;;;;;5092964;28;20173;-77
2021/07/09 08:04:39;;;;;;;3.35;2.33;;;22.00;99.90;;;;;;5093532;28;20176;-76
2021/07/09 08:07:05;;;;;;;3.43;2.40;;;21.90;99.90;;;;;;5093534;28;20277;-76
2021/07/09 08:09:31;;;;;;;2.43;2.00;;;21.90;99.90;;;;;;5093105;28;20199;-77
2021/07/09 08:12:01;;;;;;;6.63;2.53;;;22.00;99.90;;;;;;5093962;28;20182;-77
2021/07/09 08:14:27;;;;;;;9.13;2.92;;;22.20;99.90;;;;;;5098697;28;20697;-76
2021/07/09 08:16:52;;;;;;;3.95;2.33;;;22.30;99.90;;;;;;5094126;28;20199;-77
2021/07/09 08:19:21;;;;;;;4.57;2.58;;;22.50;99.90;;;;;;5098447;28;20189;-77
2021/07/09 08:21:48;;;;;;;5.10;2.58;;;22.60;99.90;;;;;;5096901;28;20177;-76
2021/07/09 08:24:18;;;;;;;6.80;2.85;;;22.70;99.90;;;;;;5097156;28;20609;-77
2021/07/09 08:26:44;;;;;;;4.35;2.35;;;22.80;99.90;;;;;;5094985;28;20233;-76
2021/07/09 08:29:09;;;;;;;4.22;2.70;;;22.60;99.90;;;;;;5094892;28;20546;-77
2021/07/09 08:31:35;;;;;;;3.50;2.42;;;22.60;99.90;;;;;;5095292;28;20208;-76
2021/07/09 08:34:01;;;;;;;2.38;2.13;;;22.30;99.90;;;;;;5117750;28;20194;-75
2021/07/09 08:36:27;;;;;;;5.40;2.47;;;22.20;99.90;;;;;;5118302;28;20198;-75
2021/07/09 08:38:53;;;;;;;4.10;2.70;;;22.10;99.90;;;;;;5118081;28;20212;-75
2021/07/09 08:41:20;;;;;;;3.25;2.28;;;22.20;99.90;;;;;;5117278;28;20166;-76
2021/07/09 08:43:45;;;;;;;3.45;2.65;;;21.90;99.90;;;;;;5117685;28;20179;-77
2021/07/09 08:46:12;;;;;;;4.10;2.63;;;22.10;99.90;;;;;;5117757;28;20180;-76
2021/07/09 08:48:39;;;;;;;4.15;2.35;;;22.10;99.90;;;;;;5117320;28;20176;-77
2021/07/09 08:51:04;;;;;;;4.33;2.83;;;22.00;99.90;;;;;;5112379;28;20172;-78
2021/07/09 08:53:30;;;;;;;5.43;2.90;;;22.20;99.90;;;;;;5094600;28;20263;-78
2021/07/09 08:55:56;;;;;;;8.10;4.03;;;22.00;99.90;;;;;;5094378;28;20207;-77
2021/07/09 08:58:22;;;;;;;7.27;2.87;;;22.00;99.90;;;;;;5095326;28;20182;-77
2021/07/09 09:00:47;;;;;;;7.13;2.93;;;21.70;99.90;;;;;;5094451;28;20173;-77
2021/07/09 09:03:20;;;;;;;4.47;2.67;;;21.60;99.90;;;;;;5094078;28;20230;-77
2021/07/09 09:05:47;;;;;;;4.70;2.80;;;21.70;99.90;;;;;;5094006;28;20181;-77
2021/07/09 09:08:15;;;;;;;3.83;2.57;;;21.60;99.90;;;;;;5094592;28;20173;-77
2021/07/09 09:10:46;;;;;;;4.30;3.17;;;21.40;99.90;;;;;;5094670;28;20174;-77
2021/07/09 09:13:17;;;;;;;5.27;2.97;;;21.20;99.90;;;;;;5094542;28;20176;-77
2021/07/09 09:16:00;;;;;;;4.57;2.77;;;21.10;99.90;;;;;;5092889;28;20182;-77
2021/07/09 09:18:31;;;;;;;5.17;3.10;;;21.10;99.90;;;;;;5095668;28;20164;-77
2021/07/09 09:21:01;;;;;;;6.63;3.57;;;21.20;99.90;;;;;;5094549;28;20166;-78
2021/07/09 09:23:27;;;;;;;4.07;2.60;;;21.20;99.90;;;;;;5095013;28;20251;-78
2021/07/09 09:25:54;;;;;;;4.23;3.00;;;21.10;99.90;;;;;;5095364;28;20195;-78
2021/07/09 09:28:20;;;;;;;3.73;2.83;;;21.00;99.90;;;;;;5094861;28;20179;-77
2021/07/09 09:30:50;;;;;;;6.33;3.50;;;21.20;99.90;;;;;;5095952;28;20165;-77
2021/07/09 09:33:15;;;;;;;5.93;3.60;;;21.10;99.90;;;;;;5094825;28;20277;-77
2021/07/09 09:35:44;;;;;;;6.10;3.60;;;20.80;99.90;;;;;;5095873;28;20220;-77
2021/07/09 09:38:11;;;;;;;5.70;3.57;;;20.80;99.90;;;;;;5082024;28;20548;-78
2021/07/09 09:40:40;;;;;;;6.77;3.97;;;20.50;99.90;;;;;;5095807;28;20164;-78
2021/07/09 09:43:09;;;;;;;8.70;5.90;;;20.20;99.90;;;;;;5097037;28;20263;-78
2021/07/09 09:45:36;;;;;;;6.00;4.30;;;20.10;99.90;;;;;;5095775;28;20220;-78
2021/07/09 09:48:06;;;;;;;7.00;4.17;;;20.20;99.90;;;;;;5078155;28;20168;-78
2021/07/09 09:50:39;;;;;;;5.73;3.80;;;20.10;99.90;;;;;;5097270;28;20221;-78
2021/07/09 09:53:05;;;;;;;4.33;3.70;;;20.00;99.90;;;;;;5097365;28;20156;-77
2021/07/09 09:55:32;;;;;;;5.13;4.17;;;20.10;99.90;;;;;;5097448;28;20211;-77
2021/07/09 09:58:11;;;;;;;5.37;4.70;;;20.10;99.90;;;;;;5100194;28;20232;-78
2021/07/09 10:00:38;;;;;;;8.17;4.13;;;20.30;99.90;;;;;;5099338;28;20164;-78
2021/07/09 10:03:04;;;;;;;5.47;4.10;;;20.30;99.90;;;;;;5102397;28;20169;-78
2021/07/09 10:05:34;;;;;;;6.23;4.47;;;20.10;99.90;;;;;;5102535;28;20191;-77
2021/07/09 10:08:00;;;;;;;6.30;4.57;;;19.50;99.90;;;;;;5099332;28;20165;-77
2021/07/09 10:10:27;;;;;;;5.67;4.93;;;19.00;99.90;;;;;;5097856;28;20539;-77
2021/07/09 10:12:54;;;;;;;9.47;6.60;;;18.80;99.90;;;;;;5078204;28;20176;-77
2021/07/09 10:15:20;;;;;;;9.57;6.07;;;18.70;99.90;;;;;;5093130;28;20200;-77
2021/07/09 10:17:52;;;;;;;8.10;4.77;;;18.70;99.90;;;;;;5078565;28;20164;-77
2021/07/09 10:20:18;;;;;;;10.07;8.00;;;18.60;99.90;;;;;;5096736;28;20210;-78
2021/07/09 10:22:47;;;;;;;8.07;4.80;;;18.60;99.90;;;;;;5095772;28;20179;-78
2021/07/09 10:25:16;;;;;;;7.40;5.73;;;18.70;99.90;;;;;;5094358;28;20203;-77
2021/07/09 10:27:44;;;;;;;7.50;6.07;;;18.60;99.90;;;;;;5099719;28;20176;-77
2021/07/09 10:30:11;;;;;;;8.63;7.03;;;18.60;99.90;;;;;;5083398;28;20321;-78
2021/07/09 10:32:48;;;;;;;8.30;6.33;;;18.70;99.90;;;;;;5076033;28;20274;-77
2021/07/09 10:35:41;;;;;;;8.77;6.23;;;18.80;99.90;;;;;;5104916;28;20698;-78
2021/07/09 10:38:19;;;;;;;7.37;6.60;;;18.90;99.90;;;;;;5090691;28;20195;-78
2021/07/09 10:40:46;;;;;;;7.50;5.80;;;18.90;99.90;;;;;;5106103;28;20591;-79
2021/07/09 10:43:14;;;;;;;8.70;5.60;;;18.90;99.90;;;;;;5104709;28;20172;-78
2021/07/09 10:45:41;;;;;;;10.90;7.27;;;18.80;99.90;;;;;;5101711;28;20196;-78
2021/07/09 10:48:13;;;;;;;6.47;5.70;;;18.80;99.90;;;;;;5081701;28;20530;-77
2021/07/09 10:50:49;;;;;;;8.13;5.67;;;18.80;99.90;;;;;;5107282;28;20176;-78
2021/07/09 10:53:15;;;;;;;5.97;4.10;;;18.70;99.90;;;;;;5102682;28;20640;-77
2021/07/09 10:55:52;;;;;;;8.70;3.80;;;18.50;99.90;;;;;;5099644;28;20318;-77
2021/07/09 10:58:22;;;;;;;4.60;3.07;;;18.40;99.90;;;;;;5099327;28;20160;-77
2021/07/09 11:00:47;;;;;;;4.87;3.60;;;18.20;99.90;;;;;;5098806;28;20168;-77
2021/07/09 11:03:25;;;;;;;6.53;3.30;;;18.10;99.90;;;;;;5098853;28;20245;-77
2021/07/09 11:05:50;;;;;;;4.37;3.37;;;17.90;99.90;;;;;;5101219;28;20195;-76
2021/07/09 11:08:31;;;;;;;6.63;3.53;;;18.20;99.90;;;;;;5097467;28;20165;-77
2021/07/09 11:10:58;;;;;;;5.63;3.80;;;18.00;99.90;;;;;;5095785;28;20179;-77
2021/07/09 11:13:41;;;;;;;5.60;3.63;;;18.20;99.90;;;;;;5095880;28;20278;-77
2021/07/09 11:16:30;;;;;;;3.40;3.07;;;18.20;99.90;;;;;;5096165;28;20259;-76
2021/07/09 11:19:00;;;;;;;4.00;3.60;;;18.00;99.90;;;;;;5095932;28;20255;-77
2021/07/09 11:21:44;;;;;;;4.47;3.50;;;17.80;99.90;;;;;;5108001;28;20186;-77
2021/07/09 11:24:12;;;;;;;7.40;4.03;;;17.70;99.90;;;;;;5100174;28;20168;-77
2021/07/09 11:26:46;;;;;;;7.33;5.20;;;17.70;99.90;;;;;;5098895;28;20203;-77
2021/07/09 11:29:21;;;;;;;4.87;4.30;;;17.80;99.90;;;;;;5095859;28;20172;-78
2021/07/09 11:31:48;;;;;;;5.67;3.50;;;17.90;99.90;;;;;;5098321;28;20178;-77
2021/07/09 11:34:15;;;;;;;4.83;4.17;;;17.90;99.90;;;;;;5098608;28;20193;-76
2021/07/09 11:36:41;;;;;;;8.13;5.23;;;17.80;99.90;;;;;;5101757;28;20200;-77
2021/07/09 11:39:25;;;;;;;8.20;5.03;;;18.00;99.90;;;;;;5100345;28;20168;-77
2021/07/09 11:42:01;;;;;;;10.27;4.60;;;18.00;99.90;;;;;;5103306;28;20202;-77
2021/07/09 11:44:28;;;;;;;6.27;3.90;;;18.10;99.90;;;;;;5105874;28;20170;-77
2021/07/09 11:46:59;;;;;;;9.27;5.50;;;18.10;99.90;;;;;;5101763;28;20184;-77
2021/07/09 11:49:34;;;;;;;9.10;4.03;;;18.10;99.90;;;;;;5101499;28;20168;-77
2021/07/09 11:52:08;;;;;;;4.97;4.13;;;18.10;99.90;;;;;;5095647;28;20191;-77
2021/07/09 11:54:39;;;;;;;5.70;4.87;;;18.00;99.90;;;;;;5078121;28;20386;-77
2021/07/09 11:57:11;;;;;;;5.93;4.40;;;17.90;99.90;;;;;;5096283;28;20195;-76
2021/07/09 11:59:38;;;;;;;4.87;4.30;;;17.90;99.90;;;;;;5098448;28;20172;-76
2021/07/09 12:02:09;;;;;;;6.03;4.77;;;17.80;99.90;;;;;;5097605;28;20226;-78
2021/07/09 12:04:38;;;;;;;4.77;3.80;;;17.90;99.90;;;;;;5095717;28;20165;-76
2021/07/09 12:07:25;;;;;;;4.47;2.50;;;17.80;99.90;;;;;;5095997;28;20197;-76
2021/07/09 12:10:16;;;;;;;5.90;2.40;;;17.70;99.90;;;;;;5098456;28;20172;-77
2021/07/09 12:12:54;;;;;;;3.23;2.13;;;17.40;99.90;;;;;;5096260;28;20171;-77
2021/07/09 12:15:24;;;;;;;3.07;1.90;;;17.50;99.90;;;;;;5094697;28;20713;-76
2021/07/09 12:17:53;;;;;;;2.03;1.70;;;17.50;99.90;;;;;;5097099;28;20172;-77
2021/07/09 12:20:30;;;;;;;4.20;2.57;;;17.20;99.90;;;;;;5101115;28;20168;-77
2021/07/09 12:23:06;;;;;;;3.03;2.83;;;17.20;99.90;;;;;;5105661;28;20168;-78
2021/07/09 12:25:42;;;;;;;2.77;2.40;;;17.40;99.90;;;;;;5105792;28;20207;-78
2021/07/09 12:28:14;;;;;;;2.67;2.43;;;17.40;99.90;;;;;;5098251;28;20486;-77
2021/07/09 12:30:44;;;;;;;4.70;3.20;;;17.40;99.90;;;;;;5095150;28;20180;-76
2021/07/09 12:33:25;;;;;;;7.47;3.90;;;17.50;99.90;;;;;;5095185;28;20173;-76
2021/07/09 12:36:01;;;;;;;5.93;3.87;;;17.60;99.90;;;;;;5094123;28;20641;-77
2021/07/09 12:38:27;;;;;;;4.37;3.77;;;17.60;99.90;;;;;;5096078;28;20274;-76
2021/07/09 12:40:53;;;;;;;3.90;3.60;;;17.40;99.90;;;;;;5114846;28;20168;-77
2021/07/09 12:43:22;;;;;;;4.30;3.60;;;17.40;99.90;;;;;;5116185;28;20177;-78
2021/07/09 12:46:06;;;;;;;4.33;3.97;;;17.50;99.90;;;;;;5117453;28;20236;-77
2021/07/09 12:48:46;;;;;;;3.97;3.20;;;17.40;99.90;;;;;;5117793;28;20169;-77
2021/07/09 12:51:38;;;;;;;3.20;2.90;;;17.40;99.90;;;;;;5116316;28;20470;-76
2021/07/09 12:54:06;;;;;;;3.47;2.77;;;17.40;99.90;;;;;;5111733;28;20291;-77
2021/07/09 12:56:41;;;;;;;3.43;3.03;;;17.40;99.90;;;;;;5094030;28;20211;-76
2021/07/09 12:59:21;;;;;;;3.57;2.97;;;17.20;99.90;;;;;;5106007;28;20202;-77
2021/07/09 13:02:06;;;;;;;3.23;2.90;;;17.10;99.90;;;;;;5098381;28;20190;-77